Time;durP1;ratioP1;P1;durP2;ratioP2;P2;SDS_P1;SDS_P2;PMS_P1;PMS_P2;Temp;Humidity;BMP_temperature;BMP_pressure;BME280_temperature;BME280_humidity;BME280_pressure;Samples;Min_cycle;Max_cycle;Signal;HPM_P1;HPM_P2
2022/11/03 00:01:53;;;;;;;18.95;9.95;;;;;;;13.45;100.00;99076.78;5095317;28;20599;-59
2022/11/03 00:04:21;;;;;;;16.35;10.10;;;;;;;13.42;100.00;99066.63;5094318;28;20031;-59
2022/11/03 00:06:49;;;;;;;19.52;10.48;;;;;;;13.43;100.00;99046.56;5100602;28;20061;-59
2022/11/03 00:09:16;;;;;;;21.90;10.52;;;;;;;13.45;100.00;99061.13;5099827;28;20412;-59
2022/11/03 00:11:43;;;;;;;16.13;10.32;;;;;;;13.54;100.00;99064.59;5089412;28;20028;-59
2022/11/03 00:14:09;;;;;;;19.65;10.05;;;;;;;13.59;100.00;99064.16;5098111;28;20028;-59
2022/11/03 00:16:35;;;;;;;18.02;10.65;;;;;;;13.51;100.00;99054.47;5091871;27;20040;-59
2022/11/03 00:19:00;;;;;;;16.55;10.05;;;;;;;13.28;100.00;99015.72;5095895;28;20069;-59
2022/11/03 00:21:26;;;;;;;14.63;9.82;;;;;;;13.50;100.00;99039.75;5093572;28;20600;-59
2022/11/03 00:23:52;;;;;;;19.17;9.80;;;;;;;13.62;100.00;99066.47;5103466;27;20020;-58
2022/11/03 00:26:22;;;;;;;18.50;10.52;;;;;;;13.61;100.00;99064.81;5092990;28;20024;-59
2022/11/03 00:28:50;;;;;;;18.70;9.93;;;;;;;13.63;100.00;99060.25;5095262;28;20020;-59
2022/11/03 00:31:17;;;;;;;19.38;9.93;;;;;;;13.61;100.00;99060.41;5101705;28;20855;-59
2022/11/03 00:33:43;;;;;;;18.33;9.93;;;;;;;13.61;100.00;99054.34;5096967;28;20035;-59
2022/11/03 00:36:12;;;;;;;15.00;10.05;;;;;;;13.59;100.00;99062.34;5089158;28;20028;-59
2022/11/03 00:38:37;;;;;;;18.08;10.82;;;;;;;13.54;100.00;99061.16;5095363;28;20077;-59
2022/11/03 00:41:04;;;;;;;16.30;9.55;;;;;;;13.23;100.00;99019.78;5092253;28;20845;-59
2022/11/03 00:43:31;;;;;;;15.15;9.80;;;;;;;13.44;100.00;99054.25;5097063;28;20557;-59
2022/11/03 00:45:57;;;;;;;18.55;10.88;;;;;;;13.48;100.00;99061.78;5099527;28;20125;-60
2022/11/03 00:48:28;;;;;;;18.50;10.52;;;;;;;13.54;100.00;99072.44;5103171;28;20089;-59
2022/11/03 00:51:09;;;;;;;17.20;9.88;;;;;;;13.32;100.00;99038.97;5106529;28;20020;-59
2022/11/03 00:53:37;;;;;;;15.27;9.32;;;;;;;13.46;100.00;99067.16;5099648;28;20035;-60
2022/11/03 00:56:03;;;;;;;16.60;10.35;;;;;;;13.21;100.00;99024.31;5101229;28;20047;-59
2022/11/03 00:58:28;;;;;;;18.45;9.98;;;;;;;13.32;100.00;99050.22;5100368;28;20502;-60
2022/11/03 01:01:06;;;;;;;16.65;10.55;;;;;;;13.27;100.00;99055.06;5094203;28;20031;-59
2022/11/03 01:03:32;;;;;;;20.80;10.50;;;;;;;13.33;100.00;99064.13;5093952;28;20053;-60
2022/11/03 01:08:42;;;;;;;16.02;10.20;;;;;;;13.27;100.00;99055.06;5101151;28;20046;-59
2022/11/03 01:13:58;;;;;;;22.60;10.95;;;;;;;13.28;100.00;99041.84;5113496;27;20095;-60
2022/11/03 01:16:23;;;;;;;19.70;10.98;;;;;;;13.36;100.00;99025.47;5074123;28;20024;-59
2022/11/03 01:18:49;;;;;;;18.70;11.10;;;;;;;13.27;100.00;99026.34;5100359;28;20035;-59
2022/11/03 01:21:15;;;;;;;16.67;10.60;;;;;;;13.21;100.00;99032.16;5102958;28;20024;-59
2022/11/03 01:23:41;;;;;;;17.60;10.35;;;;;;;13.14;100.00;99031.13;5100082;28;20066;-60
2022/11/03 01:26:08;;;;;;;17.73;10.55;;;;;;;13.09;100.00;99021.16;5099458;27;20071;-59
2022/11/03 01:28:39;;;;;;;16.23;9.93;;;;;;;13.20;100.00;99020.09;5104195;27;20894;-60
2022/11/03 01:31:05;;;;;;;15.80;10.35;;;;;;;13.01;100.00;98981.91;5104204;28;20447;-59
2022/11/03 01:33:31;;;;;;;16.60;10.57;;;;;;;13.12;100.00;99015.59;5099338;28;20023;-59
2022/11/03 01:35:57;;;;;;;18.70;9.45;;;;;;;13.17;100.00;99013.38;5094815;28;20485;-58
2022/11/03 01:38:22;;;;;;;16.63;10.20;;;;;;;13.26;100.00;99019.47;5093362;28;20087;-59
2022/11/03 01:40:47;;;;;;;19.58;9.75;;;;;;;13.15;100.00;98999.63;5100526;28;20027;-58
2022/11/03 01:43:17;;;;;;;14.15;9.43;;;;;;;13.21;100.00;98999.03;5101312;28;20026;-57
2022/11/03 01:45:43;;;;;;;;;;;;;;;13.25;100.00;99017.81;5096365;28;20031;-58
2022/11/03 01:48:10;;;;;;;14.40;9.30;;;;;;;13.26;100.00;99017.69;5138056;27;20311;-58
2022/11/03 01:50:36;;;;;;;15.02;9.45;;;;;;;13.18;100.00;99016.78;5101018;28;20766;-58
2022/11/03 01:53:01;;;;;;;15.98;10.20;;;;;;;13.25;100.00;99031.72;5095720;28;20051;-58
2022/11/03 01:55:36;;;;;;;20.48;9.75;;;;;;;13.27;100.00;99029.78;5092497;28;20015;-57
2022/11/03 01:58:18;;;;;;;18.48;9.98;;;;;;;13.03;100.00;99008.69;5112328;27;20036;-58
2022/11/03 02:00:46;;;;;;;13.38;8.90;;;;;;;13.20;100.00;99036.56;5098736;28;20023;-58
2022/11/03 02:03:12;;;;;;;19.40;10.57;;;;;;;13.02;100.00;99010.47;5122120;27;20372;-58
2022/11/03 02:05:38;;;;;;;19.80;9.93;;;;;;;13.27;100.00;99042.81;5100188;28;20038;-58
2022/11/03 02:08:14;;;;;;;16.52;9.50;;;;;;;13.24;100.00;99043.13;5098741;28;20036;-58
2022/11/03 02:10:40;;;;;;;14.00;9.55;;;;;;;13.25;100.00;99029.09;5102050;28;20374;-58
2022/11/03 02:13:17;;;;;;;15.93;9.63;;;;;;;13.33;100.00;99035.41;5101918;28;20031;-58
2022/11/03 02:15:43;;;;;;;19.02;9.43;;;;;;;13.27;100.00;99029.78;5099214;28;20054;-59
2022/11/03 02:18:10;;;;;;;17.02;9.68;;;;;;;13.37;100.00;99036.72;5093829;28;20040;-57
2022/11/03 02:20:35;;;;;;;17.52;10.18;;;;;;;13.16;100.00;98996.06;5098653;28;20049;-59
2022/11/03 02:23:20;;;;;;;16.95;10.10;;;;;;;13.43;100.00;99033.50;5101337;28;20474;-58
2022/11/03 02:25:52;;;;;;;16.23;9.82;;;;;;;13.43;100.00;99031.72;5096812;28;20381;-58
2022/11/03 02:28:20;;;;;;;16.55;10.10;;;;;;;13.44;100.00;99022.09;5100251;28;20031;-57
2022/11/03 02:30:55;;;;;;;17.50;9.80;;;;;;;13.46;100.00;99025.34;5088341;27;20020;-57
2022/11/03 02:33:29;;;;;;;17.45;9.80;;;;;;;13.48;100.00;99025.22;5091392;27;20032;-59
2022/11/03 02:36:05;;;;;;;19.17;10.25;;;;;;;13.48;100.00;99022.59;5087850;28;20024;-58
2022/11/03 02:38:33;;;;;;;18.52;10.40;;;;;;;13.44;100.00;99007.22;5100278;28;20518;-58
2022/11/03 02:41:03;;;;;;;16.92;10.10;;;;;;;13.44;100.00;99009.03;5094144;28;20034;-58
2022/11/03 02:43:28;;;;;;;17.75;10.55;;;;;;;13.28;100.00;98992.22;5082526;28;20147;-59
2022/11/03 02:45:54;;;;;;;17.58;10.40;;;;;;;13.39;100.00;99001.63;5081961;28;20642;-59
2022/11/03 02:48:20;;;;;;;20.48;10.65;;;;;;;13.38;100.00;98991.34;5102286;28;20023;-58
2022/11/03 02:50:47;;;;;;;16.95;10.13;;;;;;;13.30;100.00;98999.91;5098288;28;20512;-59
2022/11/03 02:53:14;;;;;;;16.10;10.35;;;;;;;13.32;100.00;98997.19;5102056;28;20111;-59
2022/11/03 02:55:47;;;;;;;18.52;11.13;;;;;;;13.36;100.00;98985.44;5092397;28;20054;-59
2022/11/03 02:58:17;;;;;;;15.23;11.05;;;;;;;13.21;100.00;98948.59;5102295;28;20027;-58
2022/11/03 03:00:50;;;;;;;15.68;10.23;;;;;;;13.42;100.00;98987.47;5088524;28;20024;-59
2022/11/03 03:03:32;;;;;;;17.13;10.50;;;;;;;13.47;100.00;98985.22;5099809;28;20031;-59
2022/11/03 03:06:01;;;;;;;17.20;10.48;;;;;;;13.41;100.00;98970.16;5096775;28;20023;-58
2022/11/03 03:08:28;;;;;;;17.92;10.95;;;;;;;13.40;100.00;98977.16;5127404;27;20542;-58
2022/11/03 03:10:54;;;;;;;20.25;11.00;;;;;;;13.42;100.00;98972.59;5102387;27;20047;-58
2022/11/03 03:13:21;;;;;;;15.93;10.57;;;;;;;13.45;100.00;98979.31;5079306;28;20135;-58
2022/11/03 03:16:09;;;;;;;15.77;10.10;;;;;;;13.24;100.00;98962.16;5096992;28;20775;-59
2022/11/03 03:18:50;;;;;;;17.60;10.68;;;;;;;13.31;100.00;98967.66;5100378;28;20039;-58
2022/11/03 03:21:22;;;;;;;17.52;10.85;;;;;;;13.20;100.00;98939.97;5086513;28;20151;-58
2022/11/03 03:23:54;;;;;;;15.27;10.10;;;;;;;13.44;100.00;98969.84;5094197;28;20819;-58
2022/11/03 03:26:24;;;;;;;17.60;11.27;;;;;;;13.48;100.00;98971.16;5097421;28;20016;-58
2022/11/03 03:28:56;;;;;;;17.60;10.88;;;;;;;13.50;100.00;98974.44;5103186;28;20051;-58
2022/11/03 03:31:23;;;;;;;19.77;10.70;;;;;;;13.49;100.00;98979.81;5127974;27;20107;-58
2022/11/03 03:33:49;;;;;;;19.27;11.27;;;;;;;13.50;100.00;98974.44;5099080;28;20035;-58
2022/11/03 03:36:17;;;;;;;16.00;10.25;;;;;;;13.51;100.00;98968.25;5096738;28;20117;-58
2022/11/03 03:38:52;;;;;;;17.05;10.10;;;;;;;13.55;100.00;98974.00;5084191;27;20071;-59
2022/11/03 03:41:21;;;;;;;14.68;10.13;;;;;;;13.48;100.00;98973.78;5074929;28;20027;-58
2022/11/03 03:43:48;;;;;;;18.42;10.35;;;;;;;13.48;100.00;98975.59;5073691;28;20024;-58
2022/11/03 03:46:16;;;;;;;18.67;10.82;;;;;;;13.45;100.00;98981.91;5094219;28;20467;-59
2022/11/03 03:48:41;;;;;;;16.48;10.30;;;;;;;13.51;100.00;98980.47;5097464;28;20040;-59
2022/11/03 03:51:07;;;;;;;17.98;11.43;;;;;;;13.53;100.00;98987.19;5096542;28;20470;-59
2022/11/03 03:53:32;;;;;;;18.83;11.27;;;;;;;13.44;100.00;98973.28;5099237;28;20102;-59
2022/11/03 03:55:58;;;;;;;18.85;11.20;;;;;;;13.51;100.00;98968.25;5087878;28;20647;-58
2022/11/03 03:58:23;;;;;;;19.67;11.10;;;;;;;13.46;100.00;98957.44;5095733;28;20073;-59
2022/11/03 04:00:49;;;;;;;18.27;10.82;;;;;;;13.50;100.00;98971.81;5096024;28;20029;-59
2022/11/03 04:03:22;;;;;;;18.20;10.95;;;;;;;13.54;100.00;98961.88;5099800;28;20035;-58
2022/11/03 04:05:48;;;;;;;19.38;10.90;;;;;;;13.35;100.00;98926.38;5094829;28;20024;-58
2022/11/03 04:08:15;;;;;;;19.33;10.80;;;;;;;13.57;100.00;98961.59;5096211;28;20485;-58
2022/11/03 04:22:15;;;;;;;14.80;10.57;;;;;;;13.53;100.00;98950.63;5093982;27;20481;-57
2022/11/03 04:24:23;;;;;;;22.80;13.38;;;;;;;13.34;100.00;98956.88;5094576;28;20050;-59
2022/11/03 04:26:48;;;;;;;22.13;14.73;;;;;;;13.40;100.00;98953.66;5100148;28;20805;-59
2022/11/03 04:29:13;;;;;;;22.55;13.63;;;;;;;13.41;100.00;98950.06;5099481;28;20031;-59
2022/11/03 04:31:39;;;;;;;21.75;13.65;;;;;;;13.36;100.00;98934.06;5099130;28;20381;-58
2022/11/03 04:34:09;;;;;;;22.13;12.40;;;;;;;13.40;100.00;98958.06;5097456;28;20031;-59
2022/11/03 04:36:35;;;;;;;19.77;12.20;;;;;;;13.35;100.00;98955.09;5077140;28;20036;-59
2022/11/03 04:39:00;;;;;;;23.52;13.32;;;;;;;13.38;100.00;98957.38;5090254;28;20020;-59
2022/11/03 04:41:31;;;;;;;18.23;11.50;;;;;;;13.41;100.00;98959.69;5093563;28;20019;-59
2022/11/03 04:43:56;;;;;;;23.38;12.27;;;;;;;13.46;100.00;98960.88;5094217;28;20049;-60
2022/11/03 04:46:25;;;;;;;18.50;12.40;;;;;;;13.44;100.00;98951.56;5098344;28;20032;-59
2022/11/03 04:48:52;;;;;;;23.75;12.75;;;;;;;13.37;100.00;98950.53;5084343;28;20134;-59
2022/11/03 04:51:21;;;;;;;20.63;12.32;;;;;;;13.35;100.00;98939.44;5090449;28;20052;-59
2022/11/03 04:53:50;;;;;;;20.80;12.63;;;;;;;13.30;100.00;98937.22;5108215;28;20028;-60
2022/11/03 04:56:17;;;;;;;;;;;;;;;13.27;100.00;98935.75;5110912;28;20042;-60
2022/11/03 04:58:43;;;;;;;21.13;12.32;;;;;;;13.28;100.00;98931.34;5094300;28;19920;-60
2022/11/03 05:01:11;;;;;;;26.25;13.90;;;;;;;13.28;100.00;98932.16;5077236;28;20476;-60
2022/11/03 05:03:38;;;;;;;22.70;12.75;;;;;;;13.24;100.00;98937.88;5090499;28;20038;-58
2022/11/03 05:06:10;;;;;;;21.85;12.95;;;;;;;13.25;100.00;98932.50;5112191;28;20057;-59
2022/11/03 05:08:36;;;;;;;25.13;12.68;;;;;;;13.17;100.00;98931.63;5113291;28;20055;-59
2022/11/03 05:11:11;;;;;;;22.02;12.63;;;;;;;13.15;100.00;98931.75;5100899;28;20783;-58
2022/11/03 05:13:36;;;;;;;19.55;13.10;;;;;;;13.12;100.00;98903.34;5095601;28;20038;-59
2022/11/03 05:16:04;;;;;;;22.85;13.20;;;;;;;13.02;100.00;98895.63;5091810;28;20091;-59
2022/11/03 05:18:38;;;;;;;25.63;13.48;;;;;;;13.10;100.00;98927.97;5096159;28;20119;-59
2022/11/03 05:21:17;;;;;;;22.85;13.27;;;;;;;13.16;100.00;98933.41;5097404;28;20016;-59
2022/11/03 05:23:49;;;;;;;20.13;13.60;;;;;;;13.17;100.00;98935.03;5095561;28;20038;-58
2022/11/03 05:26:19;;;;;;;24.63;13.55;;;;;;;13.12;100.00;98932.06;5107476;28;20051;-59
2022/11/03 05:28:58;;;;;;;23.08;14.13;;;;;;;13.14;100.00;98931.91;5089709;28;20081;-59
2022/11/03 05:31:27;;;;;;;;;;;;;;;13.14;100.00;98930.13;5098461;28;20020;-59
2022/11/03 05:33:57;;;;;;;24.23;14.45;;;;;;;13.19;100.00;98930.47;5103591;28;19915;-59
2022/11/03 05:36:24;;;;;;;27.27;14.68;;;;;;;13.14;100.00;98926.69;5094814;28;20027;-59
2022/11/03 05:38:50;;;;;;;22.98;15.25;;;;;;;13.14;100.00;98911.88;5081410;28;20026;-59
2022/11/03 05:41:24;;;;;;;22.55;15.27;;;;;;;13.17;100.00;98921.97;5100515;28;20599;-59
2022/11/03 05:44:01;;;;;;;25.00;15.45;;;;;;;13.20;100.00;98913.03;5098176;28;20028;-59
2022/11/03 05:46:29;;;;;;;24.10;14.48;;;;;;;13.17;100.00;98921.16;5103601;28;20560;-59
2022/11/03 05:48:55;;;;;;;27.92;15.48;;;;;;;13.16;100.00;98928.19;5103256;28;20035;-59
2022/11/03 05:51:23;;;;;;;24.13;14.95;;;;;;;13.21;100.00;98935.53;5098066;27;20047;-59
2022/11/03 05:53:53;;;;;;;22.65;14.95;;;;;;;13.27;100.00;98935.75;5101140;28;20139;-58
2022/11/03 05:56:18;;;;;;;;;;;;;;;13.28;100.00;98933.97;5110815;27;20024;-59
2022/11/03 05:58:45;;;;;;;19.42;13.80;;;;;;;13.27;100.00;98933.16;5102598;28;19962;-59
2022/11/03 06:01:33;;;;;;;29.52;15.38;;;;;;;13.34;100.00;98927.34;5099023;28;20038;-59
2022/11/03 06:04:18;;;;;;;25.13;15.52;;;;;;;13.30;100.00;98934.63;5099888;28;20108;-59
2022/11/03 06:06:50;;;;;;;26.13;16.15;;;;;;;13.24;100.00;98933.44;5113587;27;20848;-59
2022/11/03 06:09:18;;;;;;;26.38;16.45;;;;;;;13.15;100.00;98913.50;5102577;28;20501;-59
2022/11/03 06:11:44;;;;;;;26.35;15.68;;;;;;;13.27;100.00;98927.94;5079764;28;20024;-59
2022/11/03 06:14:26;;;;;;;25.58;15.57;;;;;;;13.11;100.00;98904.34;5082347;28;20035;-59
2022/11/03 06:16:54;;;;;;;27.70;16.38;;;;;;;13.24;100.00;98924.81;5090666;28;20028;-59
2022/11/03 06:19:41;;;;;;;25.17;16.38;;;;;;;13.34;100.00;98930.75;5096673;27;20066;-59
2022/11/03 06:22:29;;;;;;;28.25;16.25;;;;;;;13.36;100.00;98935.81;5120420;27;20093;-59
2022/11/03 06:24:59;;;;;;;24.98;15.60;;;;;;;13.36;100.00;98928.84;5091895;27;20038;-59
2022/11/03 06:27:27;;;;;;;26.35;16.05;;;;;;;13.39;100.00;98931.13;5095610;27;20023;-59
2022/11/03 06:29:58;;;;;;;29.15;16.98;;;;;;;13.39;100.00;98922.47;5100307;28;20548;-59
2022/11/03 06:32:24;;;;;;;24.88;15.18;;;;;;;13.41;100.00;98929.16;5097991;28;21361;-58
2022/11/03 06:34:51;;;;;;;25.80;16.08;;;;;;;13.41;100.00;98925.75;5114953;27;20031;-59
2022/11/03 06:37:22;;;;;;;28.02;16.50;;;;;;;13.48;100.00;98929.38;5093421;28;20027;-59
2022/11/03 06:39:48;;;;;;;24.95;16.25;;;;;;;13.50;100.00;98927.41;5093369;28;20043;-59
2022/11/03 06:42:15;;;;;;;25.45;16.05;;;;;;;13.34;100.00;98909.06;5107883;27;20020;-60
2022/11/03 06:44:46;;;;;;;25.65;15.52;;;;;;;13.35;100.00;98929.78;5098943;28;20039;-59
2022/11/03 06:47:24;;;;;;;26.40;15.40;;;;;;;13.15;100.00;98903.03;5100878;28;20505;-59
2022/11/03 06:49:52;;;;;;;26.00;15.25;;;;;;;13.38;100.00;98928.66;5100858;28;20145;-59
2022/11/03 06:52:32;;;;;;;26.27;16.13;;;;;;;13.52;100.00;98942.94;5098354;28;20474;-58
2022/11/03 06:55:20;;;;;;;24.10;15.25;;;;;;;13.56;100.00;98939.03;5094201;28;20034;-59
2022/11/03 06:57:46;;;;;;;29.30;16.52;;;;;;;13.55;100.00;98933.00;5094278;27;20556;-59
2022/11/03 07:00:27;;;;;;;26.35;16.00;;;;;;;13.55;100.00;98933.00;5074562;28;20036;-59
2022/11/03 07:03:05;;;;;;;26.25;15.18;;;;;;;13.55;100.00;98942.66;5094961;28;20429;-59
2022/11/03 07:05:31;;;;;;;27.67;16.83;;;;;;;13.51;100.00;98936.91;5107173;27;20031;-58
2022/11/03 07:08:02;;;;;;;27.23;16.25;;;;;;;13.56;100.00;98942.50;5084424;28;20042;-59
2022/11/03 07:10:30;;;;;;;28.98;16.50;;;;;;;13.58;100.00;98940.53;5091440;28;20110;-58
2022/11/03 07:12:59;;;;;;;24.02;15.25;;;;;;;13.61;100.00;98934.16;5100446;28;20035;-58
2022/11/03 07:15:32;;;;;;;28.08;15.93;;;;;;;13.57;100.00;98928.44;5098478;28;20028;-59
2022/11/03 07:17:58;;;;;;;24.23;15.98;;;;;;;13.52;100.00;98927.25;5109339;27;20028;-59
2022/11/03 07:20:24;;;;;;;26.88;16.08;;;;;;;13.46;100.00;98924.31;5075506;28;20032;-59
2022/11/03 07:22:49;;;;;;;26.35;16.02;;;;;;;13.58;100.00;98934.47;5079780;28;20030;-59
2022/11/03 07:25:19;;;;;;;27.23;16.77;;;;;;;13.46;100.00;98939.16;5098386;28;20594;-59
2022/11/03 07:27:45;;;;;;;26.23;16.95;;;;;;;13.54;100.00;98928.75;5072836;28;20031;-59
2022/11/03 07:30:32;;;;;;;27.92;16.33;;;;;;;13.60;100.00;98928.13;5096530;28;20046;-59
2022/11/03 07:36:21;;;;;;;28.33;16.88;;;;;;;13.67;100.00;98928.31;5096284;27;22254;-59
2022/11/03 07:38:49;;;;;;;27.27;16.27;;;;;;;13.59;100.00;98918.66;5095651;28;20023;-59
2022/11/03 07:41:18;;;;;;;28.52;17.35;;;;;;;13.61;100.00;98911.47;5101930;27;20040;-59
2022/11/03 07:43:49;;;;;;;25.77;16.00;;;;;;;13.68;100.00;98919.50;5097412;28;20059;-59
2022/11/03 07:46:19;;;;;;;27.77;17.42;;;;;;;13.72;100.00;98917.41;5089926;27;20269;-59
2022/11/03 07:48:46;;;;;;;26.17;17.33;;;;;;;13.72;100.00;98925.25;5106424;27;20084;-59
2022/11/03 07:51:28;;;;;;;26.95;16.63;;;;;;;13.67;100.00;98917.03;5102055;28;20681;-61
2022/11/03 07:54:01;;;;;;;26.08;17.65;;;;;;;13.69;100.00;98913.31;5097813;28;20035;-60
2022/11/03 07:56:31;;;;;;;23.65;16.45;;;;;;;13.71;100.00;98905.28;5096364;27;20034;-59
2022/11/03 07:59:00;;;;;;;28.75;17.42;;;;;;;13.56;100.00;98881.56;5100654;28;20115;-59
2022/11/03 08:01:31;;;;;;;24.85;16.48;;;;;;;13.61;100.00;98882.72;5065426;28;20053;-58
2022/11/03 08:04:05;;;;;;;24.23;15.68;;;;;;;13.72;100.00;98899.91;5091361;28;20110;-60
2022/11/03 08:06:31;;;;;;;24.23;16.63;;;;;;;13.75;100.00;98901.41;5100749;28;20107;-59
2022/11/03 08:08:57;;;;;;;27.98;17.38;;;;;;;13.72;100.00;98896.50;5097574;28;20042;-59
2022/11/03 08:11:23;;;;;;;26.08;16.42;;;;;;;13.64;100.00;98899.91;5082051;28;20027;-59
2022/11/03 08:13:49;;;;;;;28.08;16.85;;;;;;;13.69;100.00;98900.25;5088935;28;20031;-59
2022/11/03 08:16:15;;;;;;;27.42;16.63;;;;;;;13.55;100.00;98867.69;5095532;28;20497;-59
2022/11/03 08:18:40;;;;;;;26.10;17.48;;;;;;;13.75;100.00;98901.41;5090243;28;20038;-59
2022/11/03 08:21:05;;;;;;;28.83;16.48;;;;;;;13.74;100.00;98891.91;5093785;28;20024;-59
2022/11/03 08:23:31;;;;;;;26.48;17.38;;;;;;;13.76;100.00;98895.19;5091716;28;20699;-60
2022/11/03 08:25:56;;;;;;;30.73;17.83;;;;;;;13.79;100.00;98898.31;5093208;28;20110;-60
2022/11/03 08:28:22;;;;;;;24.75;16.63;;;;;;;13.79;100.00;98898.31;5109274;27;20063;-59
2022/11/03 08:30:47;;;;;;;29.27;17.75;;;;;;;13.80;100.00;98892.13;5097485;28;20036;-60
2022/11/03 08:33:13;;;;;;;28.17;16.63;;;;;;;13.55;100.00;98859.84;5079252;28;20039;-60
2022/11/03 08:35:38;;;;;;;30.00;16.63;;;;;;;13.71;100.00;98887.00;5092540;28;20905;-60
2022/11/03 08:38:04;;;;;;;28.55;17.48;;;;;;;13.68;100.00;98876.88;5069515;28;20042;-61
2022/11/03 08:40:29;;;;;;;26.50;16.92;;;;;;;13.73;100.00;98893.72;5092789;28;20456;-60
2022/11/03 08:42:55;;;;;;;25.45;16.77;;;;;;;13.75;100.00;98886.53;5088560;28;20031;-60
2022/11/03 08:45:20;;;;;;;31.25;18.20;;;;;;;13.71;100.00;98889.63;5095073;28;20076;-60
2022/11/03 08:47:46;;;;;;;27.35;17.17;;;;;;;13.76;100.00;98879.50;5096016;28;20036;-59
2022/11/03 08:50:11;;;;;;;27.45;17.88;;;;;;;13.54;100.00;98873.06;5101059;28;20028;-59
2022/11/03 08:52:37;;;;;;;20.42;12.95;;;;;;;13.33;100.00;98848.19;5074529;28;20043;-59
2022/11/03 08:55:03;;;;;;;17.58;10.63;;;;;;;13.58;100.00;98882.22;5083513;28;20032;-59
2022/11/03 08:57:28;;;;;;;17.75;10.52;;;;;;;13.61;100.00;98874.06;5102692;28;20062;-58
2022/11/03 08:59:54;;;;;;;17.63;10.60;;;;;;;13.37;100.00;98841.66;5091052;28;20451;-58
2022/11/03 09:02:20;;;;;;;25.70;15.07;;;;;;;13.59;100.00;98861.16;5094675;28;20083;-57
2022/11/03 09:04:46;;;;;;;27.30;12.85;;;;;;;13.54;100.00;98850.38;5091619;28;20024;-56
2022/11/03 09:07:11;;;;;;;22.15;11.88;;;;;;;13.46;100.00;98842.50;5083273;28;20646;-57
2022/11/03 09:09:36;;;;;;;19.48;10.98;;;;;;;13.49;100.00;98855.28;5096172;27;20027;-56
2022/11/03 09:12:02;;;;;;;19.42;10.18;;;;;;;13.19;100.00;98810.38;5088289;28;20694;-56
2022/11/03 09:14:27;;;;;;;25.08;11.93;;;;;;;13.38;100.00;98843.31;5091590;28;20063;-57
2022/11/03 09:16:53;;;;;;;25.02;14.00;;;;;;;13.43;100.00;98846.28;5098670;28;20038;-57
2022/11/03 09:19:18;;;;;;;21.83;13.00;;;;;;;13.48;100.00;98843.16;5094598;27;20517;-56
2022/11/03 09:21:44;;;;;;;24.20;14.93;;;;;;;13.40;100.00;98837.94;5097520;28;20036;-57
2022/11/03 09:24:09;;;;;;;22.70;14.95;;;;;;;13.19;100.00;98806.94;5100938;28;20023;-57
2022/11/03 09:26:34;;;;;;;21.40;13.73;;;;;;;13.41;100.00;98829.91;5093849;28;20516;-58
2022/11/03 09:29:00;;;;;;;23.98;16.23;;;;;;;13.32;100.00;98817.00;5107420;27;20096;-58
2022/11/03 09:31:27;;;;;;;25.45;15.38;;;;;;;13.42;100.00;98835.97;5093942;28;20422;-58
2022/11/03 09:33:53;;;;;;;28.50;15.77;;;;;;;13.48;100.00;98843.16;5084217;28;20440;-58
2022/11/03 09:36:18;;;;;;;26.73;16.92;;;;;;;13.51;100.00;98845.47;5099177;28;20061;-57
2022/11/03 09:38:44;;;;;;;27.50;16.88;;;;;;;13.49;100.00;98847.44;5098281;28;20119;-58
2022/11/03 09:41:16;;;;;;;29.10;18.48;;;;;;;13.41;100.00;98856.03;5108642;27;20062;-58
2022/11/03 09:43:43;;;;;;;26.15;17.70;;;;;;;13.33;100.00;98842.16;5095903;28;20027;-58
2022/11/03 09:46:09;;;;;;;27.17;17.33;;;;;;;13.42;100.00;98842.00;5092313;27;20092;-58
2022/11/03 09:48:35;;;;;;;25.98;16.95;;;;;;;13.54;100.00;98839.09;5128391;27;20036;-58
2022/11/03 09:51:01;;;;;;;27.20;17.10;;;;;;;13.50;100.00;98829.97;5090330;28;20033;-59
2022/11/03 09:53:26;;;;;;;24.08;15.57;;;;;;;13.34;100.00;98822.88;5101024;27;20024;-58
2022/11/03 09:55:52;;;;;;;23.42;14.65;;;;;;;13.48;100.00;98826.69;5094535;27;20038;-58
2022/11/03 09:58:17;;;;;;;22.85;15.05;;;;;;;13.57;100.00;98825.75;5091172;28;20067;-58
2022/11/03 10:00:43;;;;;;;24.80;15.93;;;;;;;13.63;100.00;98823.31;5097237;27;20727;-58
2022/11/03 10:03:10;;;;;;;24.35;14.70;;;;;;;13.59;100.00;98815.94;5089794;28;20577;-58
2022/11/03 10:05:36;;;;;;;23.35;14.15;;;;;;;13.41;100.00;98792.53;5093767;28;20099;-58
2022/11/03 10:08:05;;;;;;;22.10;14.00;;;;;;;13.59;100.00;98818.56;5101036;28;20497;-59
2022/11/03 10:10:31;;;;;;;27.85;16.48;;;;;;;13.58;100.00;98819.53;5082050;28;20181;-59
2022/11/03 10:12:58;;;;;;;25.77;16.92;;;;;;;13.45;100.00;98810.34;5101290;28;20030;-59
2022/11/03 10:15:24;;;;;;;25.77;16.40;;;;;;;13.23;100.00;98784.75;5097475;28;20106;-59
2022/11/03 10:17:50;;;;;;;28.10;17.67;;;;;;;13.46;100.00;98805.94;5091791;28;20040;-59
2022/11/03 10:20:18;;;;;;;26.67;18.00;;;;;;;13.39;100.00;98791.88;5078467;28;20020;-58
2022/11/03 10:22:44;;;;;;;31.85;18.83;;;;;;;13.28;100.00;98792.94;5095559;28;20114;-59
2022/11/03 10:25:40;;;;;;;29.33;17.92;;;;;;;13.40;100.00;98812.63;5098268;27;20027;-59
2022/11/03 10:28:19;;;;;;;32.85;19.23;;;;;;;13.35;100.00;98801.00;5090788;28;20035;-58
2022/11/03 10:30:55;;;;;;;31.33;17.75;;;;;;;13.37;100.00;98799.88;5092236;28;20039;-59
2022/11/03 10:33:40;;;;;;;27.40;17.65;;;;;;;13.41;100.00;98787.31;5083808;28;20032;-59
2022/11/03 10:36:15;;;;;;;29.45;15.90;;;;;;;13.24;100.00;98760.31;5096098;28;20039;-58
2022/11/03 10:38:42;;;;;;;27.15;17.27;;;;;;;13.43;100.00;98777.53;5094031;28;20031;-59
2022/11/03 10:41:16;;;;;;;28.35;15.60;;;;;;;13.43;100.00;98760.06;5094326;28;20063;-58
2022/11/03 10:43:43;;;;;;;26.38;15.43;;;;;;;13.40;100.00;98772.63;5098994;28;20059;-59
2022/11/03 10:46:19;;;;;;;27.83;15.63;;;;;;;13.49;100.00;98773.44;5099284;28;20054;-58
2022/11/03 10:49:15;;;;;;;25.25;15.27;;;;;;;13.52;100.00;98766.13;5101480;28;20492;-59
2022/11/03 10:51:42;;;;;;;29.25;16.70;;;;;;;13.49;100.00;98765.63;5086013;28;20070;-60
2022/11/03 10:54:11;;;;;;;28.85;16.73;;;;;;;13.55;100.00;98768.41;5099298;27;20030;-59
2022/11/03 10:56:37;;;;;;;30.73;17.77;;;;;;;13.49;100.00;98768.22;5072999;28;20035;-59
2022/11/03 10:59:03;;;;;;;36.45;18.67;;;;;;;13.53;100.00;98770.38;5096712;27;20111;-59
2022/11/03 11:01:28;;;;;;;31.20;17.75;;;;;;;13.45;100.00;98759.88;5088359;27;20028;-58
2022/11/03 11:03:54;;;;;;;26.48;15.82;;;;;;;13.55;100.00;98765.00;5092572;28;20035;-58
2022/11/03 11:06:27;;;;;;;31.95;16.55;;;;;;;13.46;100.00;98764.97;5090700;28;21208;-58
2022/11/03 11:08:57;;;;;;;40.35;21.58;;;;;;;13.45;100.00;98759.88;5095627;28;20031;-58
2022/11/03 11:11:23;;;;;;;41.72;22.40;;;;;;;13.44;100.00;98747.81;5081915;28;20204;-57
2022/11/03 11:14:21;;;;;;;42.45;21.10;;;;;;;13.62;100.00;98758.16;5102307;28;21098;-57
2022/11/03 11:16:54;;;;;;;40.60;20.70;;;;;;;13.72;100.00;98740.50;5091870;28;20466;-58
2022/11/03 11:19:21;;;;;;;36.72;19.90;;;;;;;13.73;100.00;98741.34;5076050;28;20520;-58
2022/11/03 11:21:46;;;;;;;41.35;21.30;;;;;;;13.49;100.00;98701.16;5074601;28;20024;-58
2022/11/03 11:24:12;;;;;;;38.90;20.00;;;;;;;13.75;100.00;98732.38;5101560;28;20039;-58
2022/11/03 11:26:40;;;;;;;41.92;19.27;;;;;;;13.84;100.00;98720.94;5096909;28;20204;-59
2022/11/03 11:29:09;;;;;;;38.55;19.83;;;;;;;13.96;100.00;98716.22;5097783;28;20092;-59
2022/11/03 11:31:42;;;;;;;39.85;19.48;;;;;;;13.84;100.00;98680.91;5093188;28;20027;-59
2022/11/03 11:34:16;;;;;;;41.42;20.20;;;;;;;14.06;100.00;98707.38;5078210;28;20034;-59
2022/11/03 11:36:54;;;;;;;42.45;21.27;;;;;;;14.06;100.00;98702.97;5090269;28;20023;-59
2022/11/03 11:39:23;;;;;;;34.22;19.27;;;;;;;14.08;100.00;98693.16;5091231;28;20080;-59
2022/11/03 11:42:18;;;;;;;38.80;19.95;;;;;;;14.13;100.00;98682.22;5092402;28;20034;-58